Time,TemperatureF,DewpointF,PressureIn,WindDirection,WindDirectionDegrees,WindSpeedMPH,WindSpeedGustMPH,Humidity,HourlyPrecipIn,Conditions,Clouds,dailyrainin,SoftwareType,DateUTC
2014-09-17 00:05:00,61.8,59.0,29.81,SE,141,1.0,2.0,89,0.00,,,0.00,weatherlink.com 1.10,2014-09-17 07:05:00,
2014-09-17 00:20:00,62.1,59.0,29.80,SE,138,0.0,3.0,89,0.00,,,0.00,weatherlink.com 1.10,2014-09-17 07:20:00,
2014-09-17 00:35:00,62.1,59.0,29.80,SE,134,0.0,1.0,89,0.00,,,0.00,weatherlink.com 1.10,2014-09-17 07:35:00,
2014-09-17 00:50:00,62.2,59.0,29.80,SE,127,1.0,2.0,90,0.00,,,0.00,weatherlink.com 1.10,2014-09-17 07:50:00,
2014-09-17 01:05:00,61.7,59.0,29.80,SE,129,1.0,1.0,89,0.00,,,0.00,weatherlink.com 1.10,2014-09-17 08:05:00,
2014-09-17 01:20:00,60.6,56.0,29.80,West,276,0.0,0.0,85,0.00,,,0.00,weatherlink.com 1.10,2014-09-17 08:20:00,
2014-09-17 01:35:00,59.1,56.0,29.80,West,276,0.0,0.0,88,0.00,,,0.00,weatherlink.com 1.10,2014-09-17 08:35:00,
2014-09-17 01:50:00,58.4,56.0,29.80,West,276,0.0,0.0,90,0.00,,,0.00,weatherlink.com 1.10,2014-09-17 08:50:00,
2014-09-17 02:06:00,57.9,55.0,29.80,West,276,0.0,0.0,90,0.00,,,0.00,weatherlink.com 1.10,2014-09-17 09:06:00,
2014-09-17 02:21:00,56.8,54.0,29.79,West,276,0.0,0.0,89,0.00,,,0.00,weatherlink.com 1.10,2014-09-17 09:21:00,
2014-09-17 02:36:00,57.2,55.0,29.79,West,276,0.0,0.0,91,0.00,,,0.00,weatherlink.com 1.10,2014-09-17 09:36:00,
2014-09-17 02:51:00,58.3,56.0,29.79,West,276,0.0,0.0,91,0.00,,,0.00,weatherlink.com 1.10,2014-09-17 09:51:00,
2014-09-17 03:06:00,58.5,56.0,29.79,West,276,0.0,0.0,90,0.00,,,0.00,weatherlink.com 1.10,2014-09-17 10:06:00,
2014-09-17 03:21:00,58.6,55.0,29.79,West,276,0.0,0.0,89,0.00,,,0.00,weatherlink.com 1.10,2014-09-17 10:21:00,
2014-09-17 03:36:00,58.9,56.0,29.79,West,276,0.0,0.0,89,0.00,,,0.00,weatherlink.com 1.10,2014-09-17 10:36:00,
2014-09-17 03:51:00,59.4,57.0,29.78,West,276,0.0,0.0,90,0.00,,,0.00,weatherlink.com 1.10,2014-09-17 10:51:00,
2014-09-17 04:06:00,59.9,57.0,29.79,West,276,0.0,0.0,90,0.00,,,0.00,weatherlink.com 1.10,2014-09-17 11:06:00,
2014-09-17 04:21:00,60.1,57.0,29.78,West,276,0.0,0.0,89,0.00,,,0.00,weatherlink.com 1.10,2014-09-17 11:21:00,
2014-09-17 04:36:00,60.2,57.0,29.78,West,276,0.0,0.0,89,0.00,,,0.00,weatherlink.com 1.10,2014-09-17 11:36:00,
2014-09-17 04:51:00,60.5,57.0,29.79,West,276,0.0,0.0,89,0.00,,,0.00,weatherlink.com 1.10,2014-09-17 11:51:00,
2014-09-17 05:06:00,60.4,58.0,29.79,West,276,0.0,0.0,90,0.00,,,0.00,weatherlink.com 1.10,2014-09-17 12:06:00,
2014-09-17 05:21:00,60.2,57.0,29.79,West,276,0.0,0.0,90,0.00,,,0.00,weatherlink.com 1.10,2014-09-17 12:21:00,
2014-09-17 05:36:00,60.0,57.0,29.78,West,276,0.0,0.0,90,0.00,,,0.00,weatherlink.com 1.10,2014-09-17 12:36:00,
2014-09-17 05:51:00,59.7,57.0,29.79,West,276,0.0,0.0,90,0.00,,,0.00,weatherlink.com 1.10,2014-09-17 12:51:00,
2014-09-17 06:06:00,59.7,57.0,29.79,West,276,0.0,0.0,90,0.00,,,0.00,weatherlink.com 1.10,2014-09-17 13:06:00,
2014-09-17 06:21:00,59.7,57.0,29.79,West,276,0.0,0.0,90,0.00,,,0.00,weatherlink.com 1.10,2014-09-17 13:21:00,
2014-09-17 06:36:00,59.8,57.0,29.79,West,276,0.0,0.0,91,0.00,,,0.00,weatherlink.com 1.10,2014-09-17 13:36:00,
2014-09-17 06:51:00,60.0,57.0,29.79,West,276,0.0,0.0,90,0.00,,,0.00,weatherlink.com 1.10,2014-09-17 13:51:00,
2014-09-17 07:06:00,60.0,57.0,29.79,SE,139,0.0,0.0,90,0.00,,,0.00,weatherlink.com 1.10,2014-09-17 14:06:00,
2014-09-17 07:21:00,60.1,57.0,29.79,SSE,147,0.0,0.0,90,0.00,,,0.00,weatherlink.com 1.10,2014-09-17 14:21:00,
2014-09-17 07:36:00,60.3,57.0,29.80,SSE,148,0.0,0.0,90,0.00,,,0.00,weatherlink.com 1.10,2014-09-17 14:36:00,
2014-09-17 07:51:00,60.6,58.0,29.80,SSE,148,0.0,0.0,90,0.00,,,0.00,weatherlink.com 1.10,2014-09-17 14:51:00,
2014-09-17 08:06:00,61.2,58.0,29.80,SE,139,0.0,0.0,90,0.00,,,0.00,weatherlink.com 1.10,2014-09-17 15:06:00,
2014-09-17 08:21:00,61.8,58.0,29.80,SSE,149,0.0,1.0,88,0.00,,,0.00,weatherlink.com 1.10,2014-09-17 15:21:00,
2014-09-17 08:36:00,62.2,59.0,29.80,South,176,0.0,1.0,88,0.00,,,0.00,weatherlink.com 1.10,2014-09-17 15:36:00,
2014-09-17 08:51:00,62.6,58.0,29.81,SE,137,0.0,2.0,86,0.00,,,0.00,weatherlink.com 1.10,2014-09-17 15:51:00,
2014-09-17 09:06:00,63.6,59.0,29.80,South,180,0.0,2.0,85,0.00,,,0.00,weatherlink.com 1.10,2014-09-17 16:06:00,
2014-09-17 09:21:00,65.0,59.0,29.80,South,172,0.0,2.0,81,0.00,,,0.00,weatherlink.com 1.10,2014-09-17 16:21:00,
2014-09-17 09:36:00,66.2,60.0,29.80,SSW,211,0.0,2.0,80,0.00,,,0.00,weatherlink.com 1.10,2014-09-17 16:36:00,
2014-09-17 09:51:00,68.0,60.0,29.80,SE,124,0.0,2.0,76,0.00,,,0.00,weatherlink.com 1.10,2014-09-17 16:51:00,
2014-09-17 10:06:00,70.0,61.0,29.80,SSE,152,0.0,1.0,72,0.00,,,0.00,weatherlink.com 1.10,2014-09-17 17:06:00,
2014-09-17 10:21:00,70.7,60.0,29.80,SE,134,0.0,1.0,69,0.00,,,0.00,weatherlink.com 1.10,2014-09-17 17:21:00,
2014-09-17 10:36:00,72.0,60.0,29.80,NNW,345,0.0,3.0,66,0.00,,,0.00,weatherlink.com 1.10,2014-09-17 17:36:00,
2014-09-17 10:51:00,74.1,60.0,29.80,SW,224,0.0,3.0,62,0.00,,,0.00,weatherlink.com 1.10,2014-09-17 17:51:00,
2014-09-17 11:07:00,74.7,60.0,29.80,ESE,120,2.0,2.0,61,0.00,,,0.00,weatherlink.com 1.10,2014-09-17 18:07:00,
2014-09-17 11:22:00,76.1,61.0,29.79,NW,307,0.0,3.0,59,0.00,,,0.00,weatherlink.com 1.10,2014-09-17 18:22:00,
2014-09-17 11:37:00,76.6,61.0,29.79,NW,325,1.0,3.0,58,0.00,,,0.00,weatherlink.com 1.10,2014-09-17 18:37:00,
2014-09-17 11:52:00,79.9,61.0,29.79,NW,314,0.0,2.0,53,0.00,,,0.00,weatherlink.com 1.10,2014-09-17 18:52:00,
2014-09-17 12:07:00,79.8,61.0,29.78,NNW,334,0.0,4.0,53,0.00,,,0.00,weatherlink.com 1.10,2014-09-17 19:07:00,
2014-09-17 12:22:00,79.2,61.0,29.78,North,354,0.0,4.0,54,0.00,,,0.00,weatherlink.com 1.10,2014-09-17 19:22:00,
2014-09-17 12:37:00,81.1,62.0,29.77,SE,137,0.0,4.0,52,0.00,,,0.00,weatherlink.com 1.10,2014-09-17 19:37:00,
2014-09-17 12:52:00,83.2,62.0,29.77,South,174,0.0,5.0,49,0.00,,,0.00,weatherlink.com 1.10,2014-09-17 19:52:00,
2014-09-17 13:07:00,82.9,59.0,29.77,SE,127,2.0,5.0,45,0.00,,,0.00,weatherlink.com 1.10,2014-09-17 20:07:00,
2014-09-17 13:22:00,84.5,60.0,29.77,SSE,160,1.0,4.0,43,0.00,,,0.00,weatherlink.com 1.10,2014-09-17 20:22:00,
2014-09-17 13:37:00,83.4,59.0,29.77,SSW,192,0.0,7.0,44,0.00,,,0.00,weatherlink.com 1.10,2014-09-17 20:37:00,
2014-09-17 13:52:00,82.6,59.0,29.77,NNW,339,2.0,5.0,45,0.00,,,0.00,weatherlink.com 1.10,2014-09-17 20:52:00,
2014-09-17 14:07:00,82.1,59.0,29.77,SSE,155,1.0,4.0,46,0.00,,,0.00,weatherlink.com 1.10,2014-09-17 21:07:00,
2014-09-17 14:22:00,82.4,59.0,29.76,SW,229,2.0,5.0,45,0.00,,,0.00,weatherlink.com 1.10,2014-09-17 21:22:00,
2014-09-17 14:37:00,81.6,58.0,29.76,East,100,1.0,6.0,45,0.00,,,0.00,weatherlink.com 1.10,2014-09-17 21:37:00,
2014-09-17 14:52:00,81.9,57.0,29.76,ENE,72,1.0,5.0,43,0.00,,,0.00,weatherlink.com 1.10,2014-09-17 21:52:00,
2014-09-17 15:07:00,82.8,57.0,29.76,SSE,147,3.0,4.0,41,0.00,,,0.00,weatherlink.com 1.10,2014-09-17 22:07:00,
2014-09-17 15:22:00,82.5,56.0,29.75,SW,226,0.0,7.0,40,0.00,,,0.00,weatherlink.com 1.10,2014-09-17 22:22:00,
2014-09-17 15:37:00,83.1,56.0,29.75,West,276,1.0,3.0,39,0.00,,,0.00,weatherlink.com 1.10,2014-09-17 22:37:00,
2014-09-17 15:52:00,82.5,54.0,29.75,NE,55,1.0,4.0,38,0.00,,,0.00,weatherlink.com 1.10,2014-09-17 22:52:00,
2014-09-17 16:07:00,80.1,56.0,29.75,SSE,165,2.0,9.0,43,0.00,,,0.00,weatherlink.com 1.10,2014-09-17 23:07:00,
2014-09-17 16:22:00,78.7,55.0,29.75,South,169,2.0,7.0,44,0.00,,,0.00,weatherlink.com 1.10,2014-09-17 23:22:00,
2014-09-17 16:37:00,78.2,54.0,29.74,SE,139,2.0,5.0,43,0.00,,,0.00,weatherlink.com 1.10,2014-09-17 23:37:00,
2014-09-17 16:52:00,77.8,54.0,29.74,SSE,147,1.0,4.0,44,0.00,,,0.00,weatherlink.com 1.10,2014-09-17 23:52:00,
2014-09-17 17:07:00,77.5,56.0,29.74,NNW,338,1.0,5.0,47,0.00,,,0.00,weatherlink.com 1.10,2014-09-18 00:07:00,
2014-09-17 17:22:00,75.9,57.0,29.74,SW,223,0.0,5.0,52,0.00,,,0.00,weatherlink.com 1.10,2014-09-18 00:22:00,
2014-09-17 17:37:00,75.3,57.0,29.73,SSW,193,1.0,2.0,54,0.00,,,0.00,weatherlink.com 1.10,2014-09-18 00:37:00,
2014-09-17 17:53:00,74.7,57.0,29.74,South,176,0.0,5.0,55,0.00,,,0.00,weatherlink.com 1.10,2014-09-18 00:53:00,
2014-09-17 18:07:00,73.7,57.0,29.74,South,188,2.0,3.0,56,0.00,,,0.00,weatherlink.com 1.10,2014-09-18 01:07:00,
2014-09-17 18:22:00,72.9,57.0,29.73,SE,132,2.0,2.0,57,0.00,,,0.00,weatherlink.com 1.10,2014-09-18 01:22:00,
2014-09-17 18:37:00,72.4,56.0,29.73,SE,124,1.0,2.0,56,0.00,,,0.00,weatherlink.com 1.10,2014-09-18 01:37:00,
2014-09-17 18:52:00,71.4,56.0,29.73,SSE,167,0.0,2.0,59,0.00,,,0.00,weatherlink.com 1.10,2014-09-18 01:52:00,
2014-09-17 19:07:00,71.0,56.0,29.73,SE,133,0.0,3.0,59,0.00,,,0.00,weatherlink.com 1.10,2014-09-18 02:07:00,
2014-09-17 19:22:00,70.8,55.0,29.74,SE,140,0.0,3.0,58,0.00,,,0.00,weatherlink.com 1.10,2014-09-18 02:22:00,
2014-09-17 19:37:00,69.9,56.0,29.75,SSE,155,3.0,6.0,62,0.00,,,0.00,weatherlink.com 1.10,2014-09-18 02:37:00,
2014-09-17 19:53:00,69.4,56.0,29.75,ESE,108,0.0,5.0,63,0.00,,,0.00,weatherlink.com 1.10,2014-09-18 02:53:00,
2014-09-17 20:08:00,69.6,56.0,29.75,SSE,151,0.0,0.0,63,0.00,,,0.00,weatherlink.com 1.10,2014-09-18 03:08:00,